sensor_id;sensor_type;location;lat;lon;timestamp;pressure;altitude;pressure_sealevel;temperature;humidity
53868;BME280;41577;47.470;19.080;2022-10-24T00:00:08;100520.09;;;13.96;100.00
53868;BME280;41577;47.470;19.080;2022-10-24T00:00:22;100521.94;;;13.95;100.00
53868;BME280;41577;47.470;19.080;2022-10-24T00:00:39;100515.75;;;13.95;100.00
53868;BME280;41577;47.470;19.080;2022-10-24T00:00:55;100523.81;;;13.95;100.00
53868;BME280;41577;47.470;19.080;2022-10-24T00:01:12;100514.72;;;13.96;100.00
53868;BME280;41577;47.470;19.080;2022-10-24T00:01:28;100515.75;;;13.95;100.00
53868;BME280;41577;47.470;19.080;2022-10-24T00:01:42;100520.09;;;13.96;100.00
53868;BME280;41577;47.470;19.080;2022-10-24T00:01:57;100515.75;;;13.95;100.00
53868;BME280;41577;47.470;19.080;2022-10-24T00:02:12;100517.19;;;13.97;100.00
53868;BME280;41577;47.470;19.080;2022-10-24T00:02:27;100518.63;;;14.00;100.00
53868;BME280;41577;47.470;19.080;2022-10-24T00:02:42;100515.31;;;13.98;100.00
53868;BME280;41577;47.470;19.080;2022-10-24T00:02:57;100516.19;;;13.98;100.00
53868;BME280;41577;47.470;19.080;2022-10-24T00:03:12;100513.50;;;13.98;100.00
53868;BME280;41577;47.470;19.080;2022-10-24T00:03:27;100518.88;;;13.98;100.00
53868;BME280;41577;47.470;19.080;2022-10-24T00:03:43;100524.22;;;13.98;100.00
53868;BME280;41577;47.470;19.080;2022-10-24T00:03:58;100518.88;;;13.98;100.00
53868;BME280;41577;47.470;19.080;2022-10-24T00:04:12;100522.38;;;13.99;100.00
53868;BME280;41577;47.470;19.080;2022-10-24T00:04:27;100519.69;;;13.99;100.00
53868;BME280;41577;47.470;19.080;2022-10-24T00:04:41;100519.69;;;13.99;100.00
53868;BME280;41577;47.470;19.080;2022-10-24T00:04:56;100521.53;;;13.98;100.00
53868;BME280;41577;47.470;19.080;2022-10-24T00:05:12;100517.19;;;13.97;100.00
53868;BME280;41577;47.470;19.080;2022-10-24T00:05:27;100530.63;;;13.97;100.00
53868;BME280;41577;47.470;19.080;2022-10-24T00:05:44;100520.50;;;13.99;100.00
53868;BME280;41577;47.470;19.080;2022-10-24T00:05:59;100521.53;;;13.98;100.00
53868;BME280;41577;47.470;19.080;2022-10-24T00:06:15;100518.88;;;13.98;100.00
53868;BME280;41577;47.470;19.080;2022-10-24T00:06:29;100526.06;;;13.98;100.00
53868;BME280;41577;47.470;19.080;2022-10-24T00:06:45;100519.69;;;13.99;100.00
53868;BME280;41577;47.470;19.080;2022-10-24T00:06:59;100524.22;;;13.98;100.00
53868;BME280;41577;47.470;19.080;2022-10-24T00:07:14;100518.00;;;13.98;100.00
53868;BME280;41577;47.470;19.080;2022-10-24T00:07:28;100524.22;;;13.98;100.00
53868;BME280;41577;47.470;19.080;2022-10-24T00:07:43;100523.38;;;13.98;100.00
53868;BME280;41577;47.470;19.080;2022-10-24T00:08:02;100525.25;;;13.97;100.00
53868;BME280;41577;47.470;19.080;2022-10-24T00:08:16;100530.63;;;13.97;100.00
53868;BME280;41577;47.470;19.080;2022-10-24T00:08:30;100529.81;;;13.97;100.00
53868;BME280;41577;47.470;19.080;2022-10-24T00:08:46;100525.47;;;13.96;100.00
53868;BME280;41577;47.470;19.080;2022-10-24T00:09:00;100528.16;;;13.96;100.00
53868;BME280;41577;47.470;19.080;2022-10-24T00:09:14;100523.59;;;13.96;100.00
53868;BME280;41577;47.470;19.080;2022-10-24T00:09:29;100526.28;;;13.96;100.00
53868;BME280;41577;47.470;19.080;2022-10-24T00:09:46;100524.44;;;13.97;100.00
53868;BME280;41577;47.470;19.080;2022-10-24T00:10:01;100526.28;;;13.96;100.00
53868;BME280;41577;47.470;19.080;2022-10-24T00:10:17;100522.78;;;13.96;100.00
53868;BME280;41577;47.470;19.080;2022-10-24T00:10:33;100521.94;;;13.95;100.00
53868;BME280;41577;47.470;19.080;2022-10-24T00:10:49;100522.78;;;13.96;100.00
53868;BME280;41577;47.470;19.080;2022-10-24T00:11:07;100521.13;;;13.95;100.00
53868;BME280;41577;47.470;19.080;2022-10-24T00:11:25;100524.63;;;13.95;100.00
53868;BME280;41577;47.470;19.080;2022-10-24T00:11:40;100521.94;;;13.95;100.00
53868;BME280;41577;47.470;19.080;2022-10-24T00:11:55;100521.13;;;13.95;100.00
53868;BME280;41577;47.470;19.080;2022-10-24T00:12:08;100525.66;;;13.94;100.00
53868;BME280;41577;47.470;19.080;2022-10-24T00:12:24;100520.31;;;13.94;100.00
53868;BME280;41577;47.470;19.080;2022-10-24T00:12:38;100523.19;;;13.93;100.00
53868;BME280;41577;47.470;19.080;2022-10-24T00:12:53;100517.63;;;13.94;100.00
53868;BME280;41577;47.470;19.080;2022-10-24T00:13:07;100526.50;;;13.95;100.00
53868;BME280;41577;47.470;19.080;2022-10-24T00:13:21;100527.53;;;13.94;100.00
53868;BME280;41577;47.470;19.080;2022-10-24T00:13:36;100518.63;;;13.93;100.00
53868;BME280;41577;47.470;19.080;2022-10-24T00:13:51;100521.31;;;13.93;100.00
53868;BME280;41577;47.470;19.080;2022-10-24T00:14:06;100521.31;;;13.93;100.00
53868;BME280;41577;47.470;19.080;2022-10-24T00:14:20;100518.63;;;13.93;100.00
53868;BME280;41577;47.470;19.080;2022-10-24T00:14:36;100521.31;;;13.93;100.00
53868;BME280;41577;47.470;19.080;2022-10-24T00:14:50;100515.13;;;13.93;100.00
53868;BME280;41577;47.470;19.080;2022-10-24T00:15:06;100527.72;;;13.92;100.00
53868;BME280;41577;47.470;19.080;2022-10-24T00:15:21;100521.53;;;13.92;100.00
53868;BME280;41577;47.470;19.080;2022-10-24T00:15:35;100523.19;;;13.93;100.00
53868;BME280;41577;47.470;19.080;2022-10-24T00:15:49;100522.34;;;13.92;100.00
53868;BME280;41577;47.470;19.080;2022-10-24T00:16:05;100518.03;;;13.91;100.00
53868;BME280;41577;47.470;19.080;2022-10-24T00:16:20;100520.50;;;13.93;100.00
53868;BME280;41577;47.470;19.080;2022-10-24T00:16:34;100523.19;;;13.93;100.00
53868;BME280;41577;47.470;19.080;2022-10-24T00:16:48;100516.78;;;13.94;100.00
53868;BME280;41577;47.470;19.080;2022-10-24T00:17:03;100520.31;;;13.94;100.00
53868;BME280;41577;47.470;19.080;2022-10-24T00:17:17;100519.25;;;13.95;100.00
53868;BME280;41577;47.470;19.080;2022-10-24T00:17:32;100512.88;;;13.96;100.00
53868;BME280;41577;47.470;19.080;2022-10-24T00:17:47;100521.75;;;13.97;100.00
53868;BME280;41577;47.470;19.080;2022-10-24T00:18:03;100513.69;;;13.97;100.00
53868;BME280;41577;47.470;19.080;2022-10-24T00:18:17;100515.56;;;13.96;100.00
53868;BME280;41577;47.470;19.080;2022-10-24T00:18:32;100515.56;;;13.96;100.00
53868;BME280;41577;47.470;19.080;2022-10-24T00:18:46;100511.19;;;13.95;100.00
53868;BME280;41577;47.470;19.080;2022-10-24T00:19:01;100514.94;;;13.94;100.00
53868;BME280;41577;47.470;19.080;2022-10-24T00:19:16;100520.31;;;13.94;100.00
53868;BME280;41577;47.470;19.080;2022-10-24T00:19:30;100515.13;;;13.93;100.00
53868;BME280;41577;47.470;19.080;2022-10-24T00:19:45;100511.63;;;13.92;100.00
53868;BME280;41577;47.470;19.080;2022-10-24T00:20:00;100522.34;;;13.92;100.00
53868;BME280;41577;47.470;19.080;2022-10-24T00:20:15;100515.34;;;13.91;100.00
53868;BME280;41577;47.470;19.080;2022-10-24T00:20:32;100519.88;;;13.91;100.00
53868;BME280;41577;47.470;19.080;2022-10-24T00:20:50;100518.84;;;13.92;100.00
53868;BME280;41577;47.470;19.080;2022-10-24T00:21:06;100517.81;;;13.93;100.00
53868;BME280;41577;47.470;19.080;2022-10-24T00:21:20;100515.34;;;13.91;100.00
53868;BME280;41577;47.470;19.080;2022-10-24T00:21:35;100514.50;;;13.91;100.00
53868;BME280;41577;47.470;19.080;2022-10-24T00:21:52;100517.19;;;13.91;100.00
53868;BME280;41577;47.470;19.080;2022-10-24T00:22:07;100512.03;;;13.89;100.00
53868;BME280;41577;47.470;19.080;2022-10-24T00:22:21;100517.41;;;13.89;100.00
53868;BME280;41577;47.470;19.080;2022-10-24T00:22:37;100513.88;;;13.89;100.00
53868;BME280;41577;47.470;19.080;2022-10-24T00:22:51;100517.59;;;13.88;100.00
53868;BME280;41577;47.470;19.080;2022-10-24T00:23:06;100525.47;;;13.89;100.00
53868;BME280;41577;47.470;19.080;2022-10-24T00:23:21;100518.44;;;13.88;100.00
53868;BME280;41577;47.470;19.080;2022-10-24T00:23:36;100516.56;;;13.89;100.00
53868;BME280;41577;47.470;19.080;2022-10-24T00:23:50;100514.72;;;13.89;100.00
53868;BME280;41577;47.470;19.080;2022-10-24T00:24:06;100516.56;;;13.89;100.00
53868;BME280;41577;47.470;19.080;2022-10-24T00:24:20;100521.53;;;13.92;100.00
53868;BME280;41577;47.470;19.080;2022-10-24T00:24:38;100519.88;;;13.91;100.00
53868;BME280;41577;47.470;19.080;2022-10-24T00:24:52;100520.91;;;13.90;100.00
53868;BME280;41577;47.470;19.080;2022-10-24T00:25:07;100517.41;;;13.89;100.00
53868;BME280;41577;47.470;19.080;2022-10-24T00:25:21;100510.38;;;13.88;100.00
53868;BME280;41577;47.470;19.080;2022-10-24T00:25:37;100519.25;;;13.89;100.00
53868;BME280;41577;47.470;19.080;2022-10-24T00:25:51;100520.28;;;13.88;100.00
53868;BME280;41577;47.470;19.080;2022-10-24T00:26:05;100518.44;;;13.88;100.00
53868;BME280;41577;47.470;19.080;2022-10-24T00:26:19;100524.03;;;13.87;100.00
53868;BME280;41577;47.470;19.080;2022-10-24T00:26:36;100519.66;;;13.86;100.00
53868;BME280;41577;47.470;19.080;2022-10-24T00:26:50;100515.13;;;13.86;100.00
53868;BME280;41577;47.470;19.080;2022-10-24T00:27:06;100518.66;;;13.87;100.00
53868;BME280;41577;47.470;19.080;2022-10-24T00:27:20;100514.28;;;13.86;100.00
53868;BME280;41577;47.470;19.080;2022-10-24T00:27:34;100523.16;;;13.86;100.00
53868;BME280;41577;47.470;19.080;2022-10-24T00:27:48;100516.97;;;13.86;100.00
53868;BME280;41577;47.470;19.080;2022-10-24T00:28:02;100516.16;;;13.85;100.00
53868;BME280;41577;47.470;19.080;2022-10-24T00:28:17;100518.03;;;13.85;100.00
53868;BME280;41577;47.470;19.080;2022-10-24T00:28:34;100517.81;;;13.86;100.00
53868;BME280;41577;47.470;19.080;2022-10-24T00:28:49;100511.41;;;13.87;100.00
53868;BME280;41577;47.470;19.080;2022-10-24T00:29:03;100516.78;;;13.87;100.00
53868;BME280;41577;47.470;19.080;2022-10-24T00:29:17;100506.25;;;13.86;100.00
53868;BME280;41577;47.470;19.080;2022-10-24T00:29:33;100511.59;;;13.86;100.00
53868;BME280;41577;47.470;19.080;2022-10-24T00:29:49;100511.59;;;13.86;100.00
53868;BME280;41577;47.470;19.080;2022-10-24T00:30:06;100518.03;;;13.85;100.00
53868;BME280;41577;47.470;19.080;2022-10-24T00:30:20;100517.19;;;13.84;100.00
53868;BME280;41577;47.470;19.080;2022-10-24T00:30:36;100510.97;;;13.84;100.00
53868;BME280;41577;47.470;19.080;2022-10-24T00:30:50;100519.03;;;13.84;100.00
53868;BME280;41577;47.470;19.080;2022-10-24T00:31:05;100510.97;;;13.84;100.00
53868;BME280;41577;47.470;19.080;2022-10-24T00:31:20;100515.53;;;13.83;100.00
53868;BME280;41577;47.470;19.080;2022-10-24T00:31:34;100517.41;;;13.83;100.00
53868;BME280;41577;47.470;19.080;2022-10-24T00:31:49;100524.41;;;13.84;100.00
53868;BME280;41577;47.470;19.080;2022-10-24T00:32:04;100520.09;;;13.83;100.00
53868;BME280;41577;47.470;19.080;2022-10-24T00:32:19;100520.91;;;13.83;100.00
53868;BME280;41577;47.470;19.080;2022-10-24T00:32:36;100513.88;;;13.82;100.00
53868;BME280;41577;47.470;19.080;2022-10-24T00:32:50;100516.56;;;13.82;100.00
53868;BME280;41577;47.470;19.080;2022-10-24T00:33:04;100521.09;;;13.81;100.00
53868;BME280;41577;47.470;19.080;2022-10-24T00:33:21;100516.56;;;13.82;100.00
53868;BME280;41577;47.470;19.080;2022-10-24T00:33:36;100515.72;;;13.81;100.00
53868;BME280;41577;47.470;19.080;2022-10-24T00:33:51;100521.09;;;13.81;100.00
53868;BME280;41577;47.470;19.080;2022-10-24T00:34:06;100511.19;;;13.82;100.00
53868;BME280;41577;47.470;19.080;2022-10-24T00:34:22;100512.22;;;13.81;100.00
53868;BME280;41577;47.470;19.080;2022-10-24T00:34:38;100520.28;;;13.81;100.00
53868;BME280;41577;47.470;19.080;2022-10-24T00:34:53;100515.72;;;13.81;100.00
53868;BME280;41577;47.470;19.080;2022-10-24T00:35:09;100516.78;;;13.80;100.00
53868;BME280;41577;47.470;19.080;2022-10-24T00:35:26;100522.16;;;13.80;100.00
53868;BME280;41577;47.470;19.080;2022-10-24T00:35:42;100525.66;;;13.81;100.00
53868;BME280;41577;47.470;19.080;2022-10-24T00:35:56;100521.31;;;13.80;100.00
53868;BME280;41577;47.470;19.080;2022-10-24T00:36:11;100518.63;;;13.80;100.00
53868;BME280;41577;47.470;19.080;2022-10-24T00:36:26;100522.34;;;13.79;100.00
53868;BME280;41577;47.470;19.080;2022-10-24T00:36:41;100525.84;;;13.79;100.00
53868;BME280;41577;47.470;19.080;2022-10-24T00:36:56;100522.34;;;13.79;100.00
53868;BME280;41577;47.470;19.080;2022-10-24T00:37:11;100524.00;;;13.80;100.00
53868;BME280;41577;47.470;19.080;2022-10-24T00:37:26;100525.66;;;13.81;100.00
53868;BME280;41577;47.470;19.080;2022-10-24T00:37:43;100523.78;;;13.81;100.00
53868;BME280;41577;47.470;19.080;2022-10-24T00:37:57;100525.44;;;13.83;100.00
53868;BME280;41577;47.470;19.080;2022-10-24T00:38:13;100520.28;;;13.81;100.00
53868;BME280;41577;47.470;19.080;2022-10-24T00:38:27;100520.28;;;13.81;100.00
53868;BME280;41577;47.470;19.080;2022-10-24T00:38:41;100519.22;;;13.82;100.00
53868;BME280;41577;47.470;19.080;2022-10-24T00:38:55;100526.47;;;13.81;100.00
53868;BME280;41577;47.470;19.080;2022-10-24T00:39:10;100517.59;;;13.81;100.00
53868;BME280;41577;47.470;19.080;2022-10-24T00:39:25;100514.91;;;13.81;100.00
53868;BME280;41577;47.470;19.080;2022-10-24T00:39:39;100513.03;;;13.81;100.00
53868;BME280;41577;47.470;19.080;2022-10-24T00:39:54;100514.91;;;13.81;100.00
53868;BME280;41577;47.470;19.080;2022-10-24T00:40:13;100510.59;;;13.80;100.00
53868;BME280;41577;47.470;19.080;2022-10-24T00:40:28;100507.06;;;13.79;100.00
53868;BME280;41577;47.470;19.080;2022-10-24T00:40:44;100511.41;;;13.80;100.00
53868;BME280;41577;47.470;19.080;2022-10-24T00:40:59;100514.91;;;13.81;100.00
53868;BME280;41577;47.470;19.080;2022-10-24T00:41:18;100506.84;;;13.81;100.00
53868;BME280;41577;47.470;19.080;2022-10-24T00:41:38;100501.69;;;13.79;100.00
53868;BME280;41577;47.470;19.080;2022-10-24T00:41:54;100515.94;;;13.80;100.00
53868;BME280;41577;47.470;19.080;2022-10-24T00:42:11;100513.28;;;13.80;100.00
53868;BME280;41577;47.470;19.080;2022-10-24T00:42:26;100507.06;;;13.79;100.00
53868;BME280;41577;47.470;19.080;2022-10-24T00:42:41;100500.88;;;13.79;100.00
53868;BME280;41577;47.470;19.080;2022-10-24T00:42:56;100502.53;;;13.80;100.00
53868;BME280;41577;47.470;19.080;2022-10-24T00:43:13;100507.91;;;13.80;100.00
53868;BME280;41577;47.470;19.080;2022-10-24T00:43:27;100507.91;;;13.80;100.00
53868;BME280;41577;47.470;19.080;2022-10-24T00:43:41;100504.38;;;13.79;100.00
53868;BME280;41577;47.470;19.080;2022-10-24T00:44:19;100516.97;;;13.79;100.00
53868;BME280;41577;47.470;19.080;2022-10-24T00:44:38;100510.59;;;13.80;100.00
53868;BME280;41577;47.470;19.080;2022-10-24T00:44:52;100505.81;;;13.82;100.00
53868;BME280;41577;47.470;19.080;2022-10-24T00:45:36;100509.34;;;13.83;100.00
53868;BME280;41577;47.470;19.080;2022-10-24T00:45:52;100513.66;;;13.84;100.00
53868;BME280;41577;47.470;19.080;2022-10-24T00:46:07;100513.88;;;13.82;100.00
53868;BME280;41577;47.470;19.080;2022-10-24T00:46:22;100507.47;;;13.83;100.00
53868;BME280;41577;47.470;19.080;2022-10-24T00:46:37;100511.41;;;13.87;100.00
53868;BME280;41577;47.470;19.080;2022-10-24T00:46:54;100507.06;;;13.86;100.00
53868;BME280;41577;47.470;19.080;2022-10-24T00:47:14;100507.28;;;13.85;100.00
53868;BME280;41577;47.470;19.080;2022-10-24T00:47:30;100504.78;;;13.83;100.00
53868;BME280;41577;47.470;19.080;2022-10-24T00:47:45;100510.16;;;13.83;100.00
53868;BME280;41577;47.470;19.080;2022-10-24T00:47:59;100510.16;;;13.83;100.00
53868;BME280;41577;47.470;19.080;2022-10-24T00:48:19;100510.34;;;13.81;100.00
53868;BME280;41577;47.470;19.080;2022-10-24T00:48:37;100511.19;;;13.82;100.00
53868;BME280;41577;47.470;19.080;2022-10-24T00:48:53;100507.47;;;13.83;100.00
53868;BME280;41577;47.470;19.080;2022-10-24T00:49:11;100516.34;;;13.84;100.00
53868;BME280;41577;47.470;19.080;2022-10-24T00:49:30;100508.50;;;13.82;100.00
53868;BME280;41577;47.470;19.080;2022-10-24T00:49:47;100506.66;;;13.83;100.00
53868;BME280;41577;47.470;19.080;2022-10-24T00:50:09;100508.50;;;13.82;100.00
53868;BME280;41577;47.470;19.080;2022-10-24T00:50:27;100507.69;;;13.81;100.00
53868;BME280;41577;47.470;19.080;2022-10-24T00:50:41;100508.50;;;13.82;100.00
53868;BME280;41577;47.470;19.080;2022-10-24T00:50:58;100509.53;;;13.81;100.00
53868;BME280;41577;47.470;19.080;2022-10-24T00:51:18;100503.53;;;13.79;100.00
53868;BME280;41577;47.470;19.080;2022-10-24T00:51:34;100503.34;;;13.80;100.00
53868;BME280;41577;47.470;19.080;2022-10-24T00:51:52;100500.88;;;13.79;100.00
53868;BME280;41577;47.470;19.080;2022-10-24T00:52:08;100506.22;;;13.79;100.00
53868;BME280;41577;47.470;19.080;2022-10-24T00:52:25;100507.28;;;13.78;100.00
53868;BME280;41577;47.470;19.080;2022-10-24T00:52:43;100508.09;;;13.78;100.00
53868;BME280;41577;47.470;19.080;2022-10-24T00:52:59;100504.59;;;13.78;100.00
53868;BME280;41577;47.470;19.080;2022-10-24T00:53:14;100508.28;;;13.77;100.00
53868;BME280;41577;47.470;19.080;2022-10-24T00:53:31;100507.28;;;13.78;100.00
53868;BME280;41577;47.470;19.080;2022-10-24T00:53:50;100503.97;;;13.76;100.00
53868;BME280;41577;47.470;19.080;2022-10-24T00:54:07;100501.91;;;13.78;100.00
53868;BME280;41577;47.470;19.080;2022-10-24T00:54:23;100513.66;;;13.77;100.00
53868;BME280;41577;47.470;19.080;2022-10-24T00:54:38;100504.78;;;13.76;100.00
53868;BME280;41577;47.470;19.080;2022-10-24T00:54:54;100511.19;;;13.75;100.00
53868;BME280;41577;47.470;19.080;2022-10-24T00:55:10;100507.47;;;13.76;100.00
53868;BME280;41577;47.470;19.080;2022-10-24T00:55:25;100505.81;;;13.75;100.00
53868;BME280;41577;47.470;19.080;2022-10-24T00:55:40;100501.28;;;13.76;100.00
53868;BME280;41577;47.470;19.080;2022-10-24T00:55:57;100504.97;;;13.75;100.00
53868;BME280;41577;47.470;19.080;2022-10-24T00:56:14;100506.84;;;13.74;100.00
53868;BME280;41577;47.470;19.080;2022-10-24T00:56:33;100504.97;;;13.75;100.00
53868;BME280;41577;47.470;19.080;2022-10-24T00:56:58;100509.97;;;13.78;100.00
53868;BME280;41577;47.470;19.080;2022-10-24T00:57:19;100502.91;;;13.77;100.00
53868;BME280;41577;47.470;19.080;2022-10-24T00:57:39;100504.78;;;13.76;100.00
53868;BME280;41577;47.470;19.080;2022-10-24T00:57:58;100503.53;;;13.79;100.00
53868;BME280;41577;47.470;19.080;2022-10-24T00:58:14;100506.44;;;13.77;100.00
53868;BME280;41577;47.470;19.080;2022-10-24T00:58:32;100506.22;;;13.79;100.00
53868;BME280;41577;47.470;19.080;2022-10-24T00:58:47;100506.22;;;13.79;100.00
53868;BME280;41577;47.470;19.080;2022-10-24T00:59:06;100493.84;;;13.78;100.00
53868;BME280;41577;47.470;19.080;2022-10-24T00:59:21;100502.91;;;13.77;100.00
53868;BME280;41577;47.470;19.080;2022-10-24T00:59:39;100502.91;;;13.77;100.00
53868;BME280;41577;47.470;19.080;2022-10-24T01:00:01;100502.28;;;13.75;100.00
53868;BME280;41577;47.470;19.080;2022-10-24T01:00:20;100500.47;;;13.75;100.00
53868;BME280;41577;47.470;19.080;2022-10-24T01:00:35;100493.44;;;13.74;100.00
53868;BME280;41577;47.470;19.080;2022-10-24T01:00:50;100497.97;;;13.74;100.00
53868;BME280;41577;47.470;19.080;2022-10-24T01:01:06;100497.97;;;13.74;100.00
53868;BME280;41577;47.470;19.080;2022-10-24T01:01:23;100493.44;;;13.74;100.00
53868;BME280;41577;47.470;19.080;2022-10-24T01:01:37;100497.97;;;13.74;100.00
53868;BME280;41577;47.470;19.080;2022-10-24T01:01:52;100502.53;;;13.73;100.00
53868;BME280;41577;47.470;19.080;2022-10-24T01:02:07;100494.66;;;13.72;100.00
53868;BME280;41577;47.470;19.080;2022-10-24T01:02:21;100496.31;;;13.73;100.00
53868;BME280;41577;47.470;19.080;2022-10-24T01:02:37;100501.66;;;13.73;100.00
53868;BME280;41577;47.470;19.080;2022-10-24T01:02:51;100497.16;;;13.73;100.00
53868;BME280;41577;47.470;19.080;2022-10-24T01:03:07;100493.44;;;13.74;100.00
53868;BME280;41577;47.470;19.080;2022-10-24T01:03:23;100496.94;;;13.75;100.00
53868;BME280;41577;47.470;19.080;2022-10-24T01:03:38;100493.44;;;13.74;100.00
53868;BME280;41577;47.470;19.080;2022-10-24T01:03:51;100493.22;;;13.76;100.00
53868;BME280;41577;47.470;19.080;2022-10-24T01:04:05;100503.16;;;13.75;100.00
53868;BME280;41577;47.470;19.080;2022-10-24T01:04:20;100490.75;;;13.74;100.00
53868;BME280;41577;47.470;19.080;2022-10-24T01:04:35;100494.25;;;13.75;100.00
53868;BME280;41577;47.470;19.080;2022-10-24T01:04:50;100492.59;;;13.74;100.00
53868;BME280;41577;47.470;19.080;2022-10-24T01:05:09;100496.31;;;13.73;100.00
53868;BME280;41577;47.470;19.080;2022-10-24T01:05:27;100501.47;;;13.74;100.00
53868;BME280;41577;47.470;19.080;2022-10-24T01:05:54;100496.31;;;13.73;100.00
53868;BME280;41577;47.470;19.080;2022-10-24T01:06:45;100493.84;;;13.71;100.00
53868;BME280;41577;47.470;19.080;2022-10-24T01:07:09;100490.94;;;13.73;100.00
53868;BME280;41577;47.470;19.080;2022-10-24T01:07:40;100497.53;;;13.70;100.00
53868;BME280;41577;47.470;19.080;2022-10-24T01:08:06;100494.84;;;13.70;100.00
53868;BME280;41577;47.470;19.080;2022-10-24T01:08:29;100498.38;;;13.71;100.00
53868;BME280;41577;47.470;19.080;2022-10-24T01:08:53;100503.75;;;13.71;100.00
53868;BME280;41577;47.470;19.080;2022-10-24T01:09:18;100495.47;;;13.72;100.00
53868;BME280;41577;47.470;19.080;2022-10-24T01:10:04;100490.75;;;13.74;100.00
53868;BME280;41577;47.470;19.080;2022-10-24T01:10:31;100489.91;;;13.74;100.00
53868;BME280;41577;47.470;19.080;2022-10-24T01:10:56;100494.25;;;13.75;100.00
53868;BME280;41577;47.470;19.080;2022-10-24T01:11:26;100493.84;;;13.78;100.00
53868;BME280;41577;47.470;19.080;2022-10-24T01:11:58;100497.34;;;13.78;100.00
53868;BME280;41577;47.470;19.080;2022-10-24T01:12:24;100495.69;;;13.77;100.00
53868;BME280;41577;47.470;19.080;2022-10-24T01:12:52;100501.28;;;13.76;100.00
53868;BME280;41577;47.470;19.080;2022-10-24T01:13:15;100496.09;;;13.74;100.00
53868;BME280;41577;47.470;19.080;2022-10-24T01:13:38;100498.78;;;13.74;100.00
53868;BME280;41577;47.470;19.080;2022-10-24T01:13:59;100490.13;;;13.72;100.00
53868;BME280;41577;47.470;19.080;2022-10-24T01:14:24;100493.84;;;13.71;100.00
53868;BME280;41577;47.470;19.080;2022-10-24T01:14:48;100497.16;;;13.73;100.00
53868;BME280;41577;47.470;19.080;2022-10-24T01:15:13;100488.88;;;13.75;100.00
53868;BME280;41577;47.470;19.080;2022-10-24T01:15:36;100487.22;;;13.74;100.00
53868;BME280;41577;47.470;19.080;2022-10-24T01:15:56;100493.84;;;13.78;100.00
53868;BME280;41577;47.470;19.080;2022-10-24T01:16:16;100493.84;;;13.78;100.00
53868;BME280;41577;47.470;19.080;2022-10-24T01:16:36;100491.38;;;13.76;100.00
53868;BME280;41577;47.470;19.080;2022-10-24T01:16:59;100485.19;;;13.76;100.00
53868;BME280;41577;47.470;19.080;2022-10-24T01:17:20;100484.56;;;13.74;100.00
53868;BME280;41577;47.470;19.080;2022-10-24T01:17:42;100481.03;;;13.73;100.00
53868;BME280;41577;47.470;19.080;2022-10-24T01:18:02;100488.25;;;13.73;100.00
53868;BME280;41577;47.470;19.080;2022-10-24T01:18:22;100477.50;;;13.73;100.00
53868;BME280;41577;47.470;19.080;2022-10-24T01:18:41;100485.38;;;13.74;100.00
53868;BME280;41577;47.470;19.080;2022-10-24T01:19:03;100489.72;;;13.75;100.00
53868;BME280;41577;47.470;19.080;2022-10-24T01:19:48;100486.41;;;13.73;100.00
53868;BME280;41577;47.470;19.080;2022-10-24T01:20:27;100487.44;;;13.72;100.00
53868;BME280;41577;47.470;19.080;2022-10-24T01:21:01;100486.41;;;13.73;100.00
53868;BME280;41577;47.470;19.080;2022-10-24T01:21:26;100490.94;;;13.73;100.00
53868;BME280;41577;47.470;19.080;2022-10-24T01:21:42;100482.28;;;13.71;100.00
53868;BME280;41577;47.470;19.080;2022-10-24T01:22:01;100491.16;;;13.71;100.00
53868;BME280;41577;47.470;19.080;2022-10-24T01:22:19;100483.94;;;13.72;100.00
53868;BME280;41577;47.470;19.080;2022-10-24T01:22:42;100487.44;;;13.72;100.00
53868;BME280;41577;47.470;19.080;2022-10-24T01:23:19;100485.56;;;13.73;100.00
53868;BME280;41577;47.470;19.080;2022-10-24T01:24:03;100491.34;;;13.70;100.00
53868;BME280;41577;47.470;19.080;2022-10-24T01:24:37;100485.16;;;13.69;100.00
53868;BME280;41577;47.470;19.080;2022-10-24T01:25:04;100482.69;;;13.68;100.00
53868;BME280;41577;47.470;19.080;2022-10-24T01:25:31;100485.97;;;13.70;100.00
53868;BME280;41577;47.470;19.080;2022-10-24T01:25:55;100487.03;;;13.69;100.00
53868;BME280;41577;47.470;19.080;2022-10-24T01:26:37;100488.66;;;13.70;100.00
53868;BME280;41577;47.470;19.080;2022-10-24T01:27:49;100492.81;;;13.72;100.00
53868;BME280;41577;47.470;19.080;2022-10-24T01:28:08;100488.47;;;13.71;100.00
53868;BME280;41577;47.470;19.080;2022-10-24T01:28:26;100484.13;;;13.70;100.00
53868;BME280;41577;47.470;19.080;2022-10-24T01:28:49;100499.84;;;13.73;100.00
53868;BME280;41577;47.470;19.080;2022-10-24T01:29:14;100492.59;;;13.74;100.00
53868;BME280;41577;47.470;19.080;2022-10-24T01:29:47;100492.59;;;13.74;100.00
53868;BME280;41577;47.470;19.080;2022-10-24T01:30:05;100490.13;;;13.72;100.00
53868;BME280;41577;47.470;19.080;2022-10-24T01:30:20;100492.81;;;13.72;100.00
53868;BME280;41577;47.470;19.080;2022-10-24T01:30:40;100491.34;;;13.70;100.00
53868;BME280;41577;47.470;19.080;2022-10-24T01:30:59;100494.03;;;13.70;100.00
53868;BME280;41577;47.470;19.080;2022-10-24T01:31:20;100487.84;;;13.69;100.00